CheckWX is a tool to help pilots better visualize weather data.  It is not intended as a substitute for an official pre-flight weather briefing.

20:29:40 UTC

SPZO TAF
Alejandro Velasco Astete International Airport
Cusco, Peru
TAF SPZO 221700Z 2218/2318 28010KT 9999 SCT043 BKN100 TX20/2219Z TN07/2311Z TEMPO 2218/2223 36010KT RA FEW040TCU SCT050 BKN080 FM230000 00000KT SCT040 BKN080 TEMPO 2301/2304 RA TEMPO 2310/2312 FEW020 SCT030 BKN100

Mar-22@
18:00 UTC

Mar-22 @ 18:00 UTC

Mar-23@
00:00 UTC

Mar-23 @ 00:00 UTC

TAF SPZO 221700Z 2218/2318 28010KT 9999 SCT043 BKN100 TX20/2219Z TN07/2311Z
Wind
  • 280° at 10 KTS
Cloud Levels
  • Scattered at 4,300' AGL
  • Broken at 10,000' AGL

Mar-22@
18:00 UTC

Mar-22 @ 18:00 UTC

Mar-22@
23:00 UTC

Mar-22 @ 23:00 UTC

TEMPO 2218/2223 36010KT RA FEW040TCU SCT050 BKN080

Temporary

Temporary Changes expected for less than half the time period

Wind
  • 360° at 10 KTS
Conditions
Rain
Cloud Levels
  • Few at 4,000' AGL
  • Scattered at 5,000' AGL
  • Broken at 8,000' AGL

Mar-23@
00:00 UTC

Mar-23 @ 00:00 UTC

Mar-23@
18:00 UTC

Mar-23 @ 18:00 UTC

FM230000 00000KT SCT040 BKN080

From

From Standard forecast or significant change

Cloud Levels
  • Scattered at 4,000' AGL
  • Broken at 8,000' AGL

Mar-23@
01:00 UTC

Mar-23 @ 01:00 UTC

Mar-23@
04:00 UTC

Mar-23 @ 04:00 UTC

TEMPO 2301/2304 RA

Temporary

Temporary Changes expected for less than half the time period

Conditions
Rain

Mar-23@
10:00 UTC

Mar-23 @ 10:00 UTC

Mar-23@
12:00 UTC

Mar-23 @ 12:00 UTC

TEMPO 2310/2312 FEW020 SCT030 BKN100

Temporary

Temporary Changes expected for less than half the time period

Cloud Levels
  • Few at 2,000' AGL
  • Scattered at 3,000' AGL
  • Broken at 10,000' AGL